sensor_id;sensor_type;location;lat;lon;timestamp;pressure;altitude;pressure_sealevel;temperature;humidity
46710;BME280;32442;51.514;-0.178;2023-02-17T00:02:11;101752.06;;;17.93;50.30
46710;BME280;32442;51.514;-0.178;2023-02-17T00:04:38;101753.47;;;17.96;50.47
46710;BME280;32442;51.514;-0.178;2023-02-17T00:07:05;101754.31;;;17.96;50.54
46710;BME280;32442;51.514;-0.178;2023-02-17T00:09:32;101738.09;;;17.93;50.69
46710;BME280;32442;51.514;-0.178;2023-02-17T00:11:59;101740.03;;;17.93;50.74
46710;BME280;32442;51.514;-0.178;2023-02-17T00:14:26;101750.97;;;17.94;50.68
46710;BME280;32442;51.514;-0.178;2023-02-17T00:16:53;101746.47;;;17.93;50.57
46710;BME280;32442;51.514;-0.178;2023-02-17T00:19:20;101761.31;;;17.94;50.58
46710;BME280;32442;51.514;-0.178;2023-02-17T00:24:21;101750.13;;;17.94;50.84
46710;BME280;32442;51.514;-0.178;2023-02-17T00:26:48;101755.72;;;17.94;50.62
46710;BME280;32442;51.514;-0.178;2023-02-17T00:29:16;101756.81;;;17.93;50.87
46710;BME280;32442;51.514;-0.178;2023-02-17T00:31:43;101748.44;;;17.93;51.08
46710;BME280;32442;51.514;-0.178;2023-02-17T00:34:10;101745.91;;;17.91;50.96
46710;BME280;32442;51.514;-0.178;2023-02-17T00:36:37;101745.91;;;17.91;50.61
46710;BME280;32442;51.514;-0.178;2023-02-17T00:39:05;101743.09;;;17.91;50.70
46710;BME280;32442;51.514;-0.178;2023-02-17T00:41:32;101742.25;;;17.91;50.86
46710;BME280;32442;51.514;-0.178;2023-02-17T00:43:59;101739.47;;;17.91;50.89
46710;BME280;32442;51.514;-0.178;2023-02-17T00:46:26;101736.66;;;17.91;50.80
46710;BME280;32442;51.514;-0.178;2023-02-17T00:48:53;101732.75;;;17.92;51.04
46710;BME280;32442;51.514;-0.178;2023-02-17T00:51:20;101744.53;;;17.94;51.10
46710;BME280;32442;51.514;-0.178;2023-02-17T00:53:47;101735.00;;;17.90;51.11
46710;BME280;32442;51.514;-0.178;2023-02-17T00:56:14;101734.72;;;17.91;51.17
46710;BME280;32442;51.514;-0.178;2023-02-17T00:58:41;101735.31;;;17.93;51.15
46710;BME280;32442;51.514;-0.178;2023-02-17T01:01:09;101739.19;;;17.92;51.08
46710;BME280;32442;51.514;-0.178;2023-02-17T01:03:36;101733.34;;;17.94;51.34
46710;BME280;32442;51.514;-0.178;2023-02-17T01:06:05;101731.66;;;17.93;51.59
46710;BME280;32442;51.514;-0.178;2023-02-17T01:08:32;101728.28;;;17.91;51.59
46710;BME280;32442;51.514;-0.178;2023-02-17T01:11:00;101737.50;;;17.91;51.43
46710;BME280;32442;51.514;-0.178;2023-02-17T01:13:27;101729.41;;;17.90;51.39
46710;BME280;32442;51.514;-0.178;2023-02-17T01:15:54;101731.06;;;17.91;51.65
46710;BME280;32442;51.514;-0.178;2023-02-17T01:18:21;101724.38;;;17.92;51.59
46710;BME280;32442;51.514;-0.178;2023-02-17T01:20:48;101724.38;;;17.92;51.68
46710;BME280;32442;51.514;-0.178;2023-02-17T01:23:15;101722.97;;;17.89;51.91
46710;BME280;32442;51.514;-0.178;2023-02-17T01:25:43;101718.22;;;17.90;51.89
46710;BME280;32442;51.514;-0.178;2023-02-17T01:28:13;101722.97;;;17.89;51.95
46710;BME280;32442;51.514;-0.178;2023-02-17T01:30:40;101730.22;;;17.90;51.75
46710;BME280;32442;51.514;-0.178;2023-02-17T01:33:07;101719.03;;;17.90;52.04
46710;BME280;32442;51.514;-0.178;2023-02-17T01:35:34;101706.22;;;17.89;51.86
46710;BME280;32442;51.514;-0.178;2023-02-17T01:38:01;101710.09;;;17.88;51.83
46710;BME280;32442;51.514;-0.178;2023-02-17T01:40:28;101721.03;;;17.90;52.14
46710;BME280;32442;51.514;-0.178;2023-02-17T01:42:55;101714.59;;;17.89;52.21
46710;BME280;32442;51.514;-0.178;2023-02-17T01:50:20;101714.59;;;17.89;52.13
46710;BME280;32442;51.514;-0.178;2023-02-17T01:52:48;101712.91;;;17.88;51.90
46710;BME280;32442;51.514;-0.178;2023-02-17T01:55:16;101712.06;;;17.88;52.23
46710;BME280;32442;51.514;-0.178;2023-02-17T01:57:44;101701.72;;;17.88;52.33
46710;BME280;32442;51.514;-0.178;2023-02-17T02:00:12;101706.22;;;17.89;52.14
46710;BME280;32442;51.514;-0.178;2023-02-17T02:02:41;101705.63;;;17.87;52.15
46710;BME280;32442;51.514;-0.178;2023-02-17T02:05:09;101715.69;;;17.88;52.41
46710;BME280;32442;51.514;-0.178;2023-02-17T02:07:37;101713.75;;;17.89;52.31
46710;BME280;32442;51.514;-0.178;2023-02-17T02:10:06;101715.69;;;17.88;52.17
46710;BME280;32442;51.514;-0.178;2023-02-17T02:12:35;101717.91;;;17.86;52.57
46710;BME280;32442;51.514;-0.178;2023-02-17T02:15:05;101709.81;;;17.85;52.42
46710;BME280;32442;51.514;-0.178;2023-02-17T02:17:36;101716.25;;;17.85;52.34
46710;BME280;32442;51.514;-0.178;2023-02-17T02:20:17;101698.91;;;17.83;52.24
46710;BME280;32442;51.514;-0.178;2023-02-17T02:40:13;101698.63;;;17.85;52.53
46710;BME280;32442;51.514;-0.178;2023-02-17T02:42:41;101697.50;;;17.86;52.64
46710;BME280;32442;51.514;-0.178;2023-02-17T02:45:09;101695.53;;;17.81;52.83
46710;BME280;32442;51.514;-0.178;2023-02-17T02:50:07;101706.19;;;17.84;52.86
46710;BME280;32442;51.514;-0.178;2023-02-17T02:55:05;101721.53;;;17.82;52.92
46710;BME280;32442;51.514;-0.178;2023-02-17T03:00:11;101708.69;;;17.81;53.06
46710;BME280;32442;51.514;-0.178;2023-02-17T03:05:14;101707.00;;;17.80;52.98
46710;BME280;32442;51.514;-0.178;2023-02-17T03:10:09;101719.56;;;17.82;52.95
46710;BME280;32442;51.514;-0.178;2023-02-17T03:12:38;101706.69;;;17.81;53.25
46710;BME280;32442;51.514;-0.178;2023-02-17T03:15:11;101700.84;;;17.83;53.00
46710;BME280;32442;51.514;-0.178;2023-02-17T03:17:39;101706.69;;;17.81;53.20
46710;BME280;32442;51.514;-0.178;2023-02-17T03:20:07;101717.63;;;17.83;53.12
46710;BME280;32442;51.514;-0.178;2023-02-17T03:22:34;101703.66;;;17.83;53.16
46710;BME280;32442;51.514;-0.178;2023-02-17T03:25:02;101701.69;;;17.83;53.23
46710;BME280;32442;51.514;-0.178;2023-02-17T03:27:29;101691.63;;;17.82;53.27
46710;BME280;32442;51.514;-0.178;2023-02-17T03:29:56;101698.06;;;17.83;52.97
46710;BME280;32442;51.514;-0.178;2023-02-17T03:32:23;101696.09;;;17.83;53.26
46710;BME280;32442;51.514;-0.178;2023-02-17T03:34:50;101697.22;;;17.82;53.20
46710;BME280;32442;51.514;-0.178;2023-02-17T03:37:17;101702.28;;;17.85;53.31
46710;BME280;32442;51.514;-0.178;2023-02-17T03:39:44;101701.97;;;17.82;53.28
46710;BME280;32442;51.514;-0.178;2023-02-17T03:42:11;101701.97;;;17.82;53.32
46710;BME280;32442;51.514;-0.178;2023-02-17T03:44:38;101696.38;;;17.82;53.01
46710;BME280;32442;51.514;-0.178;2023-02-17T03:47:05;101697.22;;;17.82;53.31
46710;BME280;32442;51.514;-0.178;2023-02-17T03:49:32;101705.34;;;17.84;53.05
46710;BME280;32442;51.514;-0.178;2023-02-17T03:51:59;101697.50;;;17.81;53.29
46710;BME280;32442;51.514;-0.178;2023-02-17T03:54:26;101722.66;;;17.81;53.53
46710;BME280;32442;51.514;-0.178;2023-02-17T03:56:53;101709.50;;;17.81;53.35
46710;BME280;32442;51.514;-0.178;2023-02-17T03:59:20;101705.88;;;17.81;53.00
46710;BME280;32442;51.514;-0.178;2023-02-17T04:01:47;101694.41;;;17.82;53.29
46710;BME280;32442;51.514;-0.178;2023-02-17T04:04:14;101689.94;;;17.81;53.21
46710;BME280;32442;51.514;-0.178;2023-02-17T04:06:41;101690.78;;;17.82;53.01
46710;BME280;32442;51.514;-0.178;2023-02-17T04:09:08;101693.88;;;17.80;53.45
46710;BME280;32442;51.514;-0.178;2023-02-17T04:11:34;101700.31;;;17.81;53.16
46710;BME280;32442;51.514;-0.178;2023-02-17T04:14:01;101696.94;;;17.84;53.29
46710;BME280;32442;51.514;-0.178;2023-02-17T04:16:28;101695.53;;;17.81;53.04
46710;BME280;32442;51.514;-0.178;2023-02-17T04:18:55;101699.44;;;17.80;53.29
46710;BME280;32442;51.514;-0.178;2023-02-17T04:21:22;101707.00;;;17.80;53.07
46710;BME280;32442;51.514;-0.178;2023-02-17T04:23:49;101703.34;;;17.79;53.31
46710;BME280;32442;51.514;-0.178;2023-02-17T04:26:16;101701.94;;;17.76;53.20
46710;BME280;32442;51.514;-0.178;2023-02-17T04:28:43;101704.19;;;17.80;53.03
46710;BME280;32442;51.514;-0.178;2023-02-17T04:31:10;101700.56;;;17.79;53.17
46710;BME280;32442;51.514;-0.178;2023-02-17T04:33:37;101727.41;;;17.80;53.18
46710;BME280;32442;51.514;-0.178;2023-02-17T04:36:04;101704.72;;;17.76;53.49
46710;BME280;32442;51.514;-0.178;2023-02-17T04:38:31;101706.16;;;17.79;53.12
46710;BME280;32442;51.514;-0.178;2023-02-17T04:40:58;101710.63;;;17.80;53.17
46710;BME280;32442;51.514;-0.178;2023-02-17T04:43:26;101716.75;;;17.77;53.27
46710;BME280;32442;51.514;-0.178;2023-02-17T04:45:53;101710.63;;;17.80;53.33
46710;BME280;32442;51.514;-0.178;2023-02-17T04:48:20;101713.69;;;17.78;53.23
46710;BME280;32442;51.514;-0.178;2023-02-17T04:50:48;101724.88;;;17.78;53.60
46710;BME280;32442;51.514;-0.178;2023-02-17T04:53:14;101700.53;;;17.74;53.32
46710;BME280;32442;51.514;-0.178;2023-02-17T04:55:41;101703.31;;;17.74;53.56
46710;BME280;32442;51.514;-0.178;2023-02-17T04:58:08;101704.72;;;17.76;53.23
46710;BME280;32442;51.514;-0.178;2023-02-17T05:00:35;101709.50;;;17.76;53.47
46710;BME280;32442;51.514;-0.178;2023-02-17T05:03:03;101711.72;;;17.74;53.25
46710;BME280;32442;51.514;-0.178;2023-02-17T05:05:30;101717.59;;;17.77;53.12
46710;BME280;32442;51.514;-0.178;2023-02-17T05:07:56;101711.16;;;17.77;53.07
46710;BME280;32442;51.514;-0.178;2023-02-17T05:10:23;101719.53;;;17.77;53.05
46710;BME280;32442;51.514;-0.178;2023-02-17T05:12:50;101721.78;;;17.75;53.30
46710;BME280;32442;51.514;-0.178;2023-02-17T05:15:18;101735.47;;;17.76;53.05
46710;BME280;32442;51.514;-0.178;2023-02-17T05:17:45;101720.09;;;17.74;53.18
46710;BME280;32442;51.514;-0.178;2023-02-17T05:20:12;101718.41;;;17.73;53.08
46710;BME280;32442;51.514;-0.178;2023-02-17T05:22:39;101710.88;;;17.73;53.32
46710;BME280;32442;51.514;-0.178;2023-02-17T05:25:06;101710.31;;;17.71;53.12
46710;BME280;32442;51.514;-0.178;2023-02-17T05:27:33;101712.25;;;17.71;53.26
46710;BME280;32442;51.514;-0.178;2023-02-17T05:30:02;101721.75;;;17.70;53.46
46710;BME280;32442;51.514;-0.178;2023-02-17T05:32:30;101730.44;;;17.73;53.24
46710;BME280;32442;51.514;-0.178;2023-02-17T05:34:57;101710.31;;;17.71;53.35
46710;BME280;32442;51.514;-0.178;2023-02-17T05:37:23;101717.25;;;17.69;53.12
46710;BME280;32442;51.514;-0.178;2023-02-17T05:39:50;101718.94;;;17.70;53.34
46710;BME280;32442;51.514;-0.178;2023-02-17T05:42:17;101706.09;;;17.69;53.01
46710;BME280;32442;51.514;-0.178;2023-02-17T05:44:44;101717.81;;;17.66;52.92
46710;BME280;32442;51.514;-0.178;2023-02-17T05:47:11;101708.59;;;17.65;53.10
46710;BME280;32442;51.514;-0.178;2023-02-17T05:49:38;101716.72;;;17.67;52.77
46710;BME280;32442;51.514;-0.178;2023-02-17T05:52:05;101716.97;;;17.65;53.15
46710;BME280;32442;51.514;-0.178;2023-02-17T05:54:31;101718.38;;;17.68;53.16
46710;BME280;32442;51.514;-0.178;2023-02-17T05:56:58;101711.94;;;17.67;52.79
46710;BME280;32442;51.514;-0.178;2023-02-17T05:59:25;101707.19;;;17.68;52.92
46710;BME280;32442;51.514;-0.178;2023-02-17T06:01:52;101703.00;;;17.65;52.81
46710;BME280;32442;51.514;-0.178;2023-02-17T06:04:19;101726.19;;;17.66;52.72
46710;BME280;32442;51.514;-0.178;2023-02-17T06:06:46;101712.75;;;17.63;52.72
46710;BME280;32442;51.514;-0.178;2023-02-17T06:09:13;101724.22;;;17.61;52.86
46710;BME280;32442;51.514;-0.178;2023-02-17T06:11:40;101708.59;;;17.65;52.67
46710;BME280;32442;51.514;-0.178;2023-02-17T06:14:07;101705.22;;;17.63;52.52
46710;BME280;32442;51.514;-0.178;2023-02-17T06:16:33;101708.28;;;17.62;52.65
46710;BME280;32442;51.514;-0.178;2023-02-17T06:19:00;101709.41;;;17.61;52.86
46710;BME280;32442;51.514;-0.178;2023-02-17T06:21:28;101711.34;;;17.60;52.61
46710;BME280;32442;51.514;-0.178;2023-02-17T06:23:54;101701.00;;;17.61;52.41
46710;BME280;32442;51.514;-0.178;2023-02-17T06:26:21;101704.91;;;17.60;52.49
46710;BME280;32442;51.514;-0.178;2023-02-17T06:28:48;101691.19;;;17.58;52.51
46710;BME280;32442;51.514;-0.178;2023-02-17T06:31:15;101689.50;;;17.57;52.65
46710;BME280;32442;51.514;-0.178;2023-02-17T06:33:42;101687.56;;;17.58;52.48
46710;BME280;32442;51.514;-0.178;2023-02-17T06:36:09;101682.81;;;17.58;52.64
46710;BME280;32442;51.514;-0.178;2023-02-17T06:38:36;101681.13;;;17.57;52.53
46710;BME280;32442;51.514;-0.178;2023-02-17T06:41:03;101699.00;;;17.56;52.76
46710;BME280;32442;51.514;-0.178;2023-02-17T06:43:30;101692.03;;;17.59;52.33
46710;BME280;32442;51.514;-0.178;2023-02-17T06:45:57;101688.66;;;17.57;52.32
46710;BME280;32442;51.514;-0.178;2023-02-17T06:48:24;101702.63;;;17.57;52.34
46710;BME280;32442;51.514;-0.178;2023-02-17T06:50:51;101708.50;;;17.55;52.62
46710;BME280;32442;51.514;-0.178;2023-02-17T06:53:17;101704.59;;;17.56;52.57
46710;BME280;32442;51.514;-0.178;2023-02-17T06:55:44;101700.69;;;17.57;52.32
46710;BME280;32442;51.514;-0.178;2023-02-17T06:58:11;101700.69;;;17.57;52.41
46710;BME280;32442;51.514;-0.178;2023-02-17T07:00:38;101691.72;;;17.55;52.30
46710;BME280;32442;51.514;-0.178;2023-02-17T07:03:05;101686.72;;;17.57;52.58
46710;BME280;32442;51.514;-0.178;2023-02-17T07:05:34;101681.97;;;17.58;52.39
46710;BME280;32442;51.514;-0.178;2023-02-17T07:08:02;101685.63;;;17.58;52.22
46710;BME280;32442;51.514;-0.178;2023-02-17T07:10:30;101690.94;;;17.60;52.61
46710;BME280;32442;51.514;-0.178;2023-02-17T07:12:57;101682.84;;;17.63;52.63
46710;BME280;32442;51.514;-0.178;2023-02-17T07:15:23;101685.13;;;17.66;52.52
46710;BME280;32442;51.514;-0.178;2023-02-17T07:17:50;101702.47;;;17.73;52.70
46710;BME280;32442;51.514;-0.178;2023-02-17T07:20:17;101693.28;;;17.78;52.49
46710;BME280;32442;51.514;-0.178;2023-02-17T07:22:44;101702.81;;;17.82;52.72
46710;BME280;32442;51.514;-0.178;2023-02-17T07:25:11;101711.81;;;17.89;52.62
46710;BME280;32442;51.514;-0.178;2023-02-17T07:27:38;101706.25;;;17.94;52.28
46710;BME280;32442;51.514;-0.178;2023-02-17T07:30:05;101714.09;;;18.02;52.39
46710;BME280;32442;51.514;-0.178;2023-02-17T07:32:33;101713.81;;;18.09;52.47
46710;BME280;32442;51.514;-0.178;2023-02-17T07:35:01;101711.91;;;18.14;52.16
46710;BME280;32442;51.514;-0.178;2023-02-17T07:37:28;101714.44;;;18.21;52.07
46710;BME280;32442;51.514;-0.178;2023-02-17T07:39:54;101724.53;;;18.27;51.86
46710;BME280;32442;51.514;-0.178;2023-02-17T07:42:22;101729.28;;;18.32;51.95
46710;BME280;32442;51.514;-0.178;2023-02-17T07:44:49;101732.69;;;18.39;51.94
46710;BME280;32442;51.514;-0.178;2023-02-17T07:47:16;101746.72;;;18.44;51.61
46710;BME280;32442;51.514;-0.178;2023-02-17T07:49:43;101745.59;;;18.50;51.38
46710;BME280;32442;51.514;-0.178;2023-02-17T07:52:10;101769.72;;;18.56;51.40
46710;BME280;32442;51.514;-0.178;2023-02-17T07:54:37;101783.72;;;18.61;51.21
46710;BME280;32442;51.514;-0.178;2023-02-17T07:57:04;101789.34;;;18.66;51.38
46710;BME280;32442;51.514;-0.178;2023-02-17T07:59:31;101807.81;;;18.72;51.41
46710;BME280;32442;51.514;-0.178;2023-02-17T08:01:58;101806.72;;;18.78;50.80
46710;BME280;32442;51.514;-0.178;2023-02-17T08:04:25;101806.47;;;18.85;51.13
46710;BME280;32442;51.514;-0.178;2023-02-17T08:06:52;101810.41;;;18.89;50.88
46710;BME280;32442;51.514;-0.178;2023-02-17T08:09:19;101821.31;;;18.95;51.55
46710;BME280;32442;51.514;-0.178;2023-02-17T08:11:48;101825.56;;;19.03;52.41
46710;BME280;32442;51.514;-0.178;2023-02-17T08:14:20;101830.59;;;19.11;53.44
46710;BME280;32442;51.514;-0.178;2023-02-17T08:16:48;101821.66;;;19.19;52.43
46710;BME280;32442;51.514;-0.178;2023-02-17T08:19:15;101831.44;;;19.22;51.96
46710;BME280;32442;51.514;-0.178;2023-02-17T08:21:42;101814.94;;;19.35;53.39
46710;BME280;32442;51.514;-0.178;2023-02-17T08:24:09;101808.50;;;19.35;53.35
46710;BME280;32442;51.514;-0.178;2023-02-17T08:26:36;101800.91;;;19.40;52.29
46710;BME280;32442;51.514;-0.178;2023-02-17T08:29:03;101810.75;;;19.43;52.01
46710;BME280;32442;51.514;-0.178;2023-02-17T08:31:31;101806.28;;;19.47;51.32
46710;BME280;32442;51.514;-0.178;2023-02-17T08:33:59;101815.25;;;19.49;51.35
46710;BME280;32442;51.514;-0.178;2023-02-17T08:36:27;101822.81;;;19.53;50.81
46710;BME280;32442;51.514;-0.178;2023-02-17T08:38:54;101824.50;;;19.60;50.99
46710;BME280;32442;51.514;-0.178;2023-02-17T08:43:49;101835.72;;;19.65;50.36
46710;BME280;32442;51.514;-0.178;2023-02-17T08:46:17;101836.84;;;19.69;50.49
46710;BME280;32442;51.514;-0.178;2023-02-17T08:48:45;101848.06;;;19.74;50.77
46710;BME280;32442;51.514;-0.178;2023-02-17T08:51:13;101841.03;;;19.76;51.13
46710;BME280;32442;51.514;-0.178;2023-02-17T08:53:41;101842.19;;;19.80;50.83
46710;BME280;32442;51.514;-0.178;2023-02-17T08:56:08;101813.81;;;19.82;50.77
46710;BME280;32442;51.514;-0.178;2023-02-17T08:58:35;101809.63;;;19.84;50.23
46710;BME280;32442;51.514;-0.178;2023-02-17T09:01:02;101814.09;;;19.85;50.43
46710;BME280;32442;51.514;-0.178;2023-02-17T09:03:32;101816.34;;;19.88;49.87
46710;BME280;32442;51.514;-0.178;2023-02-17T09:05:59;101814.66;;;19.92;50.08
46710;BME280;32442;51.514;-0.178;2023-02-17T09:08:27;101816.88;;;19.95;49.75
46710;BME280;32442;51.514;-0.178;2023-02-17T09:10:54;101821.94;;;19.98;49.76
46710;BME280;32442;51.514;-0.178;2023-02-17T09:13:21;101815.75;;;20.02;49.33
46710;BME280;32442;51.514;-0.178;2023-02-17T09:15:48;101819.69;;;20.06;48.94
46710;BME280;32442;51.514;-0.178;2023-02-17T09:18:15;101811.00;;;20.07;49.07
46710;BME280;32442;51.514;-0.178;2023-02-17T09:20:42;101804.53;;;20.12;48.97
46710;BME280;32442;51.514;-0.178;2023-02-17T09:23:09;101807.59;;;20.15;48.92
46710;BME280;32442;51.514;-0.178;2023-02-17T09:25:36;101807.31;;;20.17;48.20
46710;BME280;32442;51.514;-0.178;2023-02-17T09:28:03;101806.16;;;20.18;48.33
46710;BME280;32442;51.514;-0.178;2023-02-17T09:30:31;101807.59;;;20.20;48.43
46710;BME280;32442;51.514;-0.178;2023-02-17T09:32:58;101808.44;;;20.21;48.42
46710;BME280;32442;51.514;-0.178;2023-02-17T09:35:25;101809.81;;;20.23;48.49
46710;BME280;32442;51.514;-0.178;2023-02-17T09:37:52;101817.94;;;20.25;47.89
46710;BME280;32442;51.514;-0.178;2023-02-17T09:40:21;101820.44;;;20.26;48.23
46710;BME280;32442;51.514;-0.178;2023-02-17T09:42:49;101819.34;;;20.27;47.98
46710;BME280;32442;51.514;-0.178;2023-02-17T09:45:18;101819.34;;;20.27;47.75
46710;BME280;32442;51.514;-0.178;2023-02-17T09:47:47;101815.41;;;20.28;48.09
46710;BME280;32442;51.514;-0.178;2023-02-17T09:50:17;101816.25;;;20.29;47.99
46710;BME280;32442;51.514;-0.178;2023-02-17T09:55:17;101804.19;;;20.28;47.92
46710;BME280;32442;51.514;-0.178;2023-02-17T09:57:48;101790.75;;;20.30;47.86
46710;BME280;32442;51.514;-0.178;2023-02-17T10:00:24;101793.81;;;20.29;47.64
46710;BME280;32442;51.514;-0.178;2023-02-17T10:05:22;101793.22;;;20.27;47.79
46710;BME280;32442;51.514;-0.178;2023-02-17T10:07:51;101794.06;;;20.27;47.60
46710;BME280;32442;51.514;-0.178;2023-02-17T10:10:21;101783.97;;;20.26;47.49
46710;BME280;32442;51.514;-0.178;2023-02-17T10:12:51;101799.16;;;20.25;47.72
46710;BME280;32442;51.514;-0.178;2023-02-17T10:15:22;101795.50;;;20.25;47.34
46710;BME280;32442;51.514;-0.178;2023-02-17T10:22:50;101789.88;;;20.25;47.52
46710;BME280;32442;51.514;-0.178;2023-02-17T10:25:19;101792.13;;;20.23;47.59
46710;BME280;32442;51.514;-0.178;2023-02-17T10:30:22;101796.38;;;20.20;48.03
46710;BME280;32442;51.514;-0.178;2023-02-17T10:32:58;101787.38;;;20.18;47.76
46710;BME280;32442;51.514;-0.178;2023-02-17T10:40:27;101777.59;;;20.11;47.88
46710;BME280;32442;51.514;-0.178;2023-02-17T10:42:56;101776.75;;;20.10;47.79
46710;BME280;32442;51.514;-0.178;2023-02-17T10:47:55;101782.09;;;20.07;48.04
46710;BME280;32442;51.514;-0.178;2023-02-17T10:50:23;101779.03;;;20.03;48.13
46710;BME280;32442;51.514;-0.178;2023-02-17T10:52:51;101779.28;;;20.07;48.01
46710;BME280;32442;51.514;-0.178;2023-02-17T10:55:20;101786.28;;;20.04;47.66
46710;BME280;32442;51.514;-0.178;2023-02-17T10:57:52;101779.56;;;20.00;47.90
46710;BME280;32442;51.514;-0.178;2023-02-17T11:00:20;101791.06;;;20.04;47.73
46710;BME280;32442;51.514;-0.178;2023-02-17T11:02:48;101790.78;;;20.00;47.99
46710;BME280;32442;51.514;-0.178;2023-02-17T11:05:20;101779.56;;;20.00;48.08
46710;BME280;32442;51.514;-0.178;2023-02-17T11:07:47;101780.41;;;20.01;47.88
46710;BME280;32442;51.514;-0.178;2023-02-17T11:12:46;101802.88;;;19.95;48.16
46710;BME280;32442;51.514;-0.178;2023-02-17T11:15:16;101794.75;;;19.94;48.28
46710;BME280;32442;51.514;-0.178;2023-02-17T11:17:44;101800.63;;;19.97;48.21
46710;BME280;32442;51.514;-0.178;2023-02-17T11:22:40;101818.59;;;19.91;48.01
46710;BME280;32442;51.514;-0.178;2023-02-17T11:27:40;101820.28;;;19.87;48.15
46710;BME280;32442;51.514;-0.178;2023-02-17T11:30:08;101820.84;;;19.84;48.63
46710;BME280;32442;51.514;-0.178;2023-02-17T11:32:35;101825.88;;;19.82;48.58
46710;BME280;32442;51.514;-0.178;2023-02-17T11:35:02;101820.59;;;19.76;48.70
46710;BME280;32442;51.514;-0.178;2023-02-17T11:37:32;101813.56;;;19.78;48.37
46710;BME280;32442;51.514;-0.178;2023-02-17T11:40:09;101820.84;;;19.64;49.22
46710;BME280;32442;51.514;-0.178;2023-02-17T11:42:40;101813.03;;;19.66;49.00
46710;BME280;32442;51.514;-0.178;2023-02-17T11:47:41;101809.09;;;19.57;49.49
46710;BME280;32442;51.514;-0.178;2023-02-17T11:52:41;101807.69;;;19.54;49.63
46710;BME280;32442;51.514;-0.178;2023-02-17T11:57:44;101810.47;;;19.49;49.71
46710;BME280;32442;51.514;-0.178;2023-02-17T12:05:18;101816.09;;;19.44;49.74
46710;BME280;32442;51.514;-0.178;2023-02-17T12:07:51;101815.78;;;19.41;50.20
46710;BME280;32442;51.514;-0.178;2023-02-17T12:23:01;101831.47;;;19.37;50.13
46710;BME280;32442;51.514;-0.178;2023-02-17T12:25:32;101847.75;;;19.35;50.36
46710;BME280;32442;51.514;-0.178;2023-02-17T12:35:37;101858.94;;;19.30;50.22
46710;BME280;32442;51.514;-0.178;2023-02-17T12:38:10;101844.94;;;19.30;50.29
46710;BME280;32442;51.514;-0.178;2023-02-17T12:40:39;101857.25;;;19.29;50.40
46710;BME280;32442;51.514;-0.178;2023-02-17T12:43:15;101847.16;;;19.33;50.52
46710;BME280;32442;51.514;-0.178;2023-02-17T12:45:45;101859.78;;;19.30;50.72
46710;BME280;32442;51.514;-0.178;2023-02-17T12:48:17;101854.44;;;19.29;50.50
46710;BME280;32442;51.514;-0.178;2023-02-17T12:53:22;101862.00;;;19.28;50.74
46710;BME280;32442;51.514;-0.178;2023-02-17T12:55:54;101860.31;;;19.27;50.69
46710;BME280;32442;51.514;-0.178;2023-02-17T12:58:24;101876.84;;;19.24;51.03
46710;BME280;32442;51.514;-0.178;2023-02-17T13:00:54;101860.03;;;19.24;50.79
46710;BME280;32442;51.514;-0.178;2023-02-17T13:03:27;101877.13;;;19.27;50.42
46710;BME280;32442;51.514;-0.178;2023-02-17T13:08:28;101864.78;;;19.23;50.91
46710;BME280;32442;51.514;-0.178;2023-02-17T13:11:00;101872.09;;;19.24;50.79
46710;BME280;32442;51.514;-0.178;2023-02-17T13:13:28;101867.59;;;19.23;50.52
46710;BME280;32442;51.514;-0.178;2023-02-17T13:18:27;101871.50;;;19.22;50.85
46710;BME280;32442;51.514;-0.178;2023-02-17T13:20:58;101883.56;;;19.23;50.37
46710;BME280;32442;51.514;-0.178;2023-02-17T13:23:26;101888.88;;;19.19;50.97
46710;BME280;32442;51.514;-0.178;2023-02-17T13:30:54;101892.50;;;19.15;50.96
46710;BME280;32442;51.514;-0.178;2023-02-17T13:35:49;101902.63;;;19.16;50.77
46710;BME280;32442;51.514;-0.178;2023-02-17T13:40:46;101906.78;;;19.13;50.97
46710;BME280;32442;51.514;-0.178;2023-02-17T13:43:17;101916.59;;;19.10;51.38
46710;BME280;32442;51.514;-0.178;2023-02-17T13:50:46;101923.06;;;19.16;51.13
46710;BME280;32442;51.514;-0.178;2023-02-17T13:55:46;101923.66;;;19.28;51.00
46710;BME280;32442;51.514;-0.178;2023-02-17T13:58:13;101916.09;;;19.34;51.04
46710;BME280;32442;51.514;-0.178;2023-02-17T14:00:41;101920.31;;;19.41;50.86
46710;BME280;32442;51.514;-0.178;2023-02-17T14:03:12;101920.94;;;19.48;50.57
46710;BME280;32442;51.514;-0.178;2023-02-17T14:05:44;101928.22;;;19.54;50.64
46710;BME280;32442;51.514;-0.178;2023-02-17T14:10:41;101928.50;;;19.68;50.44
46710;BME280;32442;51.514;-0.178;2023-02-17T14:13:09;101931.31;;;19.73;50.14
46710;BME280;32442;51.514;-0.178;2023-02-17T14:15:37;101928.53;;;19.78;50.15
46710;BME280;32442;51.514;-0.178;2023-02-17T14:18:15;101945.09;;;19.85;50.02
46710;BME280;32442;51.514;-0.178;2023-02-17T14:20:42;101919.84;;;19.85;50.20
46710;BME280;32442;51.514;-0.178;2023-02-17T14:23:10;101933.56;;;19.91;50.10
46710;BME280;32442;51.514;-0.178;2023-02-17T14:25:38;101932.19;;;19.94;49.58
46710;BME280;32442;51.514;-0.178;2023-02-17T14:30:37;101947.63;;;20.07;49.62
46710;BME280;32442;51.514;-0.178;2023-02-17T14:35:33;101952.09;;;20.13;49.77
46710;BME280;32442;51.514;-0.178;2023-02-17T14:40:30;101967.53;;;20.20;49.56
46710;BME280;32442;51.514;-0.178;2023-02-17T14:42:57;101965.56;;;20.21;49.25
46710;BME280;32442;51.514;-0.178;2023-02-17T14:45:24;101963.31;;;20.23;49.31
46710;BME280;32442;51.514;-0.178;2023-02-17T14:47:51;101962.19;;;20.24;49.13
46710;BME280;32442;51.514;-0.178;2023-02-17T14:50:18;101951.53;;;20.26;49.16
46710;BME280;32442;51.514;-0.178;2023-02-17T14:52:46;101958.81;;;20.27;49.22
46710;BME280;32442;51.514;-0.178;2023-02-17T14:57:43;101962.19;;;20.29;49.36
46710;BME280;32442;51.514;-0.178;2023-02-17T15:00:11;101964.75;;;20.30;49.35
46710;BME280;32442;51.514;-0.178;2023-02-17T15:02:39;101971.19;;;20.31;49.07